Guide — WDE7328 — position and weather

sailwx.info

Track history (hours):
 
Tides and Currents Weather Stations Pressure Air Temp Water Temp Dewpoint Dewpoint Depression Visibility Wind Speed Wind Dir Waves Ship Positions

Guide

Owner: CROWLEY MARINE SERVICES INC, SEATTLE, WA. More information available from US FCC via Universal Licensing System and Coast Guard Vessel Documentation Center.

Last reported at 2015-Mar-01 20:19 UTC. Time now 2015-Mar-01 20:58 UTC.
Position N 47°16' W 122°24'.

Length 34 m; draft 5.1 m.

Type: Tug. MMSI: 366759530.

Date/timePositionNaut miles runAvg speedWind from/ knotsBaromVisibWave heightAir tempDewpointWater temp
2015-Mar-01 20:19N 47°16' W 122°24'0 0.3
2015-Mar-01 19:30N 47°16' W 122°24'1 1.5
2015-Mar-01 18:33N 47°17' W 122°25'2 1.7
2015-Mar-01 17:33N 47°15' W 122°26'0 0.0
2015-Mar-01 15:32N 47°15' W 122°26'1 0.8
2015-Mar-01 14:31N 47°16' W 122°26'2 2.3
2015-Mar-01 13:32N 47°16' W 122°23'0 0.2
2015-Mar-01 12:33N 47°16' W 122°23'1 0.3
2015-Mar-01 10:06N 47°16' W 122°24'0 0.0
2015-Mar-01 07:08N 47°16' W 122°24'1 0.9
2015-Mar-01 06:32N 47°16' W 122°23'1 0.8
2015-Mar-01 05:31N 47°15' W 122°23'0 0.5
2015-Mar-01 04:33N 47°16' W 122°23'0 0.0
2015-Mar-01 03:32N 47°16' W 122°23'2 1.9
2015-Mar-01 02:32N 47°17' W 122°25'0 0.3
2015-Mar-01 01:33N 47°17' W 122°25'1 0.5
2015-Mar-01 00:33N 47°16' W 122°25'1 1.1
2015-Feb-28 23:28N 47°16' W 122°23'2 1.9
2015-Feb-28 22:22N 47°16' W 122°26'2 1.9
2015-Feb-28 21:20N 47°18' W 122°27'9 9.4
2015-Feb-28 20:21N 47°27' W 122°25'712.0
2015-Feb-28 19:46N 47°34' W 122°27'211.2
2015-Feb-28 19:32N 47°36' W 122°24'1 8.9
2015-Feb-28 19:26N 47°36' W 122°22'1 1.1
2015-Feb-28 18:33N 47°35' W 122°22'0 0.8
2015-Feb-28 18:31N 47°35' W 122°22'1 0.7
2015-Feb-28 17:33N 47°35' W 122°21'0 0.0
2015-Feb-28 17:26N 47°35' W 122°21'0 0.0
2015-Feb-28 16:33N 47°35' W 122°21'0 0.0
2015-Feb-28 16:31N 47°35' W 122°21'0 0.0
2015-Feb-28 15:29N 47°35' W 122°21'0 0.0
2015-Feb-28 15:21N 47°35' W 122°21'3 3.5
2015-Feb-28 14:33N 47°35' W 122°25'9 8.5
2015-Feb-28 13:30N 47°26' W 122°23'7 7.3
2015-Feb-28 12:33N 47°20' W 122°26'4 4.1
2015-Feb-28 11:32N 47°16' W 122°23'0 0.5
2015-Feb-28 10:32N 47°15' W 122°23'1 0.5
2015-Feb-28 08:31N 47°16' W 122°24'0 0.0
2015-Feb-28 05:32N 47°16' W 122°24'0 0.0
2015-Feb-28 04:33N 47°16' W 122°24'1 0.9
2015-Feb-28 03:21N 47°15' W 122°23'0 0.1
2015-Feb-28 02:27N 47°16' W 122°23'0 0.1
2015-Feb-28 01:32N 47°15' W 122°23'3 2.3
2015-Feb-28 00:17N 47°18' W 122°26'0 0.0
2015-Feb-27 22:17N 47°18' W 122°26'0 0.1
2015-Feb-27 21:25N 47°18' W 122°26'1 1.6
2015-Feb-27 20:31N 47°16' W 122°25'1 0.9
2015-Feb-27 19:16N 47°15' W 122°26'0 0.0
2015-Feb-27 18:26N 47°15' W 122°26'0 0.0
2015-Feb-27 17:20N 47°15' W 122°26'0 0.0
2015-Feb-27 15:15N 47°15' W 122°26'1 0.3
2015-Feb-27 13:21N 47°16' W 122°26'2 2.0
2015-Feb-27 12:28N 47°16' W 122°24'0 0.3
2015-Feb-27 11:18N 47°16' W 122°24'0 0.0
2015-Feb-27 10:07N 47°16' W 122°24'0 0.0
2015-Feb-27 09:30N 47°16' W 122°24'0 0.0
2015-Feb-27 08:08N 47°16' W 122°24'0 0.0
2015-Feb-27 07:33N 47°16' W 122°24'0 0.0
2015-Feb-27 04:15N 47°16' W 122°24'1 1.8
2015-Feb-27 03:33N 47°17' W 122°25'1 1.3
2015-Feb-27 02:32N 47°16' W 122°24'1 0.9
2015-Feb-27 01:30N 47°16' W 122°23'1 0.9
2015-Feb-27 00:33N 47°16' W 122°24'1 0.7
2015-Feb-26 23:33N 47°16' W 122°25'3 6.3
2015-Feb-26 23:08N 47°18' W 122°27'5 8.0
2015-Feb-26 22:33N 47°22' W 122°24'4 7.7
2015-Feb-26 21:59N 47°26' W 122°24'4 8.8
2015-Feb-26 21:33N 47°30' W 122°26'1 8.8
2015-Feb-26 21:24N 47°31' W 122°27'6 6.1
2015-Feb-26 20:30N 47°35' W 122°21'0 0.0
2015-Feb-26 19:59N 47°35' W 122°21'0 0.0
2015-Feb-26 19:33N 47°35' W 122°21'0 0.0
2015-Feb-26 19:13N 47°35' W 122°21'0 0.0
2015-Feb-26 18:33N 47°35' W 122°21'0 0.0
2015-Feb-26 18:29N 47°35' W 122°21'0 0.0
2015-Feb-26 17:33N 47°35' W 122°21'0 0.0
2015-Feb-26 17:29N 47°35' W 122°21'0 0.0
2015-Feb-26 16:33N 47°35' W 122°21'0 0.0
2015-Feb-26 16:33N 47°35' W 122°21'0 0.0
2015-Feb-26 15:32N 47°35' W 122°21'0 0.0
2015-Feb-26 15:32N 47°35' W 122°21'0 0.0
2015-Feb-26 14:33N 47°35' W 122°21'0 0.0
2015-Feb-26 14:33N 47°35' W 122°21'0 0.5
2015-Feb-26 13:33N 47°35' W 122°21'0 2.5
2015-Feb-26 13:28N 47°35' W 122°21'1 0.6
2015-Feb-26 12:33N 47°36' W 122°21'0 0.2
2015-Feb-26 12:06N 47°36' W 122°21'1 1.5
2015-Feb-26 11:33N 47°35' W 122°21'0 0.0
2015-Feb-26 11:26N 47°35' W 122°21'0 0.0
2015-Feb-26 10:28N 47°35' W 122°21'0 0.0
2015-Feb-26 10:01N 47°35' W 122°21'0 0.0
2015-Feb-26 09:33N 47°35' W 122°21'0 0.0
2015-Feb-26 09:30N 47°35' W 122°21'0 0.2
2015-Feb-26 08:33N 47°35' W 122°21'0 0.2
2015-Feb-26 07:33N 47°35' W 122°21'0 0.0
2015-Feb-26 06:58N 47°35' W 122°21'0 0.0
2015-Feb-26 06:31N 47°35' W 122°21'0 0.0
2015-Feb-26 05:33N 47°35' W 122°21'0 0.0
2015-Feb-26 05:28N 47°35' W 122°21'0 0.0
2015-Feb-26 04:33N 47°35' W 122°21'0 0.0
2015-Feb-26 04:33N 47°35' W 122°21'0 0.0
2015-Feb-26 03:33N 47°35' W 122°21'0 0.0
2015-Feb-26 03:23N 47°35' W 122°21'5 6.6
2015-Feb-26 02:33N 47°34' W 122°29'1 9.6
2015-Feb-26 02:24N 47°34' W 122°31'1 1.1
2015-Feb-26 01:33N 47°34' W 122°32'5 4.7
2015-Feb-26 00:33N 47°29' W 122°30'112.2
2015-Feb-26 00:28N 47°28' W 122°31'1010.6
2015-Feb-25 23:33N 47°19' W 122°29'5 4.6
2015-Feb-25 22:33N 47°16' W 122°24'1 0.9
2015-Feb-25 21:32N 47°16' W 122°25'1 0.8
2015-Feb-25 20:32N 47°17' W 122°25'1 0.8
2015-Feb-25 19:33N 47°18' W 122°26'0 0.4
2015-Feb-25 18:33N 47°18' W 122°26'2 2.1
2015-Feb-25 17:33N 47°16' W 122°24'1 1.0
2015-Feb-25 16:33N 47°15' W 122°23'2 2.4
2015-Feb-25 15:33N 47°16' W 122°26'1 1.0
2015-Feb-25 14:33N 47°15' W 122°26'0 0.0
2015-Feb-25 13:33N 47°15' W 122°26'0 0.0
2015-Feb-25 12:32N 47°15' W 122°26'0 0.0
2015-Feb-25 11:33N 47°15' W 122°26'0 0.0
2015-Feb-25 10:33N 47°15' W 122°26'0 0.0
2015-Feb-25 09:32N 47°15' W 122°26'0 0.0
2015-Feb-25 08:33N 47°15' W 122°26'0 0.0
2015-Feb-25 07:33N 47°15' W 122°26'0 0.0
2015-Feb-25 06:33N 47°15' W 122°26'0 0.0
2015-Feb-25 05:33N 47°15' W 122°26'0 0.0
2015-Feb-25 04:06N 47°15' W 122°26'0 0.0
2015-Feb-25 03:29N 47°15' W 122°26'1 1.6
2015-Feb-25 02:33N 47°17' W 122°26'2 2.3
2015-Feb-25 01:33N 47°16' W 122°23'2 2.0
2015-Feb-25 00:33N 47°17' W 122°25'1 0.6
2015-Feb-24 23:33N 47°17' W 122°26'2 1.7
2015-Feb-24 22:29N 47°15' W 122°26'0 0.0
2015-Feb-24 20:33N 47°15' W 122°26'0 0.0
2015-Feb-24 19:33N 47°15' W 122°26'0 0.0
2015-Feb-24 18:33N 47°15' W 122°26'2 1.6
2015-Feb-24 17:33N 47°17' W 122°25'1 0.5
2015-Feb-24 16:33N 47°16' W 122°24'0 0.2
2015-Feb-24 15:33N 47°16' W 122°24'1 1.5
2015-Feb-24 14:33N 47°17' W 122°26'3 3.0
2015-Feb-24 13:33N 47°15' W 122°23'3 2.9
2015-Feb-24 12:31N 47°17' W 122°26'2 1.5
2015-Feb-24 11:30N 47°16' W 122°26'2 1.7
2015-Feb-24 10:28N 47°16' W 122°24'0 0.0
2015-Feb-24 09:33N 47°16' W 122°24'0 0.0
2015-Feb-24 08:30N 47°16' W 122°24'0 0.0
2015-Feb-24 07:33N 47°16' W 122°24'0 0.2
2015-Feb-24 06:31N 47°16' W 122°24'1 1.1
2015-Feb-24 05:20N 47°15' W 122°23'1 0.6
2015-Feb-24 04:27N 47°16' W 122°23'1 0.3
2015-Feb-24 02:32N 47°15' W 122°23'0 0.3
2015-Feb-24 01:28N 47°16' W 122°23'2 2.2
2015-Feb-24 00:33N 47°15' W 122°26'0 0.0
2015-Feb-23 23:33N 47°15' W 122°26'0 0.0
2015-Feb-23 22:33N 47°15' W 122°26'0 0.0
2015-Feb-23 21:28N 47°15' W 122°26'0 0.0
2015-Feb-23 20:33N 47°15' W 122°26'0 0.0
2015-Feb-23 19:33N 47°15' W 122°26'0 0.0
2015-Feb-23 18:25N 47°15' W 122°26'0 0.0
2015-Feb-23 17:39N 47°15' W 122°26'0 0.1
2015-Feb-23 17:33N 47°15' W 122°26'0 0.0
2015-Feb-23 16:31N 47°15' W 122°26'0 0.0
2015-Feb-23 15:32N 47°15' W 122°26'0 0.0
2015-Feb-23 14:33N 47°15' W 122°26'0 0.0
2015-Feb-23 13:22N 47°15' W 122°26'0 0.0
2015-Feb-23 12:33N 47°15' W 122°26'0 0.0
2015-Feb-23 11:33N 47°15' W 122°26'0 0.0
2015-Feb-23 10:33N 47°15' W 122°26'0 0.0
2015-Feb-23 09:33N 47°15' W 122°26'2 2.1
2015-Feb-23 08:33N 47°15' W 122°23'2 2.4
2015-Feb-23 07:33N 47°17' W 122°25'2 1.9
2015-Feb-23 06:33N 47°16' W 122°23'0 0.4
2015-Feb-23 06:22N 47°16' W 122°23'1 0.7
2015-Feb-23 05:33N 47°15' W 122°23'0 0.8
2015-Feb-23 05:17N 47°15' W 122°23'3 3.5
2015-Feb-23 04:33N 47°17' W 122°26'0 1.5
2015-Feb-23 04:20N 47°17' W 122°26'2 2.1
2015-Feb-23 03:33N 47°15' W 122°26'0 0.0
2015-Feb-23 02:33N 47°15' W 122°26'0 0.0
2015-Feb-23 01:33N 47°15' W 122°26'0 0.0
2015-Feb-23 00:33N 47°15' W 122°26'0 0.0
2015-Feb-22 23:33N 47°15' W 122°26'0 0.0
2015-Feb-22 22:33N 47°15' W 122°26'0 0.0
2015-Feb-22 21:33N 47°15' W 122°26'0 0.0
2015-Feb-22 20:33N 47°15' W 122°26'0 0.0
2015-Feb-22 19:33N 47°15' W 122°26'0 0.0
2015-Feb-22 18:36N 47°15' W 122°26'0 0.0
2015-Feb-22 18:33N 47°15' W 122°26'0 0.0
2015-Feb-22 17:33N 47°15' W 122°26'2 1.8
2015-Feb-22 16:35N 47°17' W 122°27'0 7.7
2015-Feb-22 16:33N 47°17' W 122°27'0 7.3
2015-Feb-22 16:30N 47°18' W 122°27'8 8.0
2015-Feb-22 15:33N 47°25' W 122°23'3 9.5
2015-Feb-22 15:16N 47°27' W 122°25'7 9.4
2015-Feb-22 14:33N 47°33' W 122°27'0 8.5
2015-Feb-22 14:30N 47°34' W 122°27'4 4.4
2015-Feb-22 13:33N 47°35' W 122°21'0 0.0
2015-Feb-22 13:31N 47°35' W 122°21'0 0.0
2015-Feb-22 12:33N 47°35' W 122°21'0 0.0
2015-Feb-22 12:20N 47°35' W 122°21'1 0.8
2015-Feb-22 11:33N 47°35' W 122°21'0 0.1
2015-Feb-22 11:30N 47°35' W 122°21'2 1.9
2015-Feb-22 10:33N 47°37' W 122°21'0 0.3
2015-Feb-22 10:24N 47°37' W 122°21'2 2.1
2015-Feb-22 09:33N 47°35' W 122°21'0 0.0
2015-Feb-22 09:29N 47°35' W 122°21'0 0.1
2015-Feb-22 08:33N 47°35' W 122°21'0 6.5
2015-Feb-22 08:29N 47°35' W 122°21'1 0.8
2015-Feb-22 07:49N 47°35' W 122°21'0 0.0
2015-Feb-22 07:33N 47°35' W 122°21'0 0.0
2015-Feb-22 06:33N 47°35' W 122°21'0 0.1
2015-Feb-22 06:29N 47°35' W 122°21'0 0.0
2015-Feb-22 05:33N 47°35' W 122°21'0 0.0
2015-Feb-22 05:29N 47°35' W 122°21'0 0.0
2015-Feb-22 04:33N 47°35' W 122°21'0 0.0
2015-Feb-22 04:29N 47°35' W 122°21'0 0.0
2015-Feb-22 03:33N 47°35' W 122°21'0 0.0
2015-Feb-22 03:29N 47°35' W 122°21'0 0.0
2015-Feb-22 02:33N 47°35' W 122°21'0 0.1
2015-Feb-22 02:29N 47°35' W 122°21'0 0.0
2015-Feb-22 01:33N 47°35' W 122°21'0 0.0
2015-Feb-22 01:33N 47°35' W 122°21'0 0.0
2015-Feb-22 00:31N 47°35' W 122°21'0 0.0
2015-Feb-22 00:27N 47°35' W 122°21'0 0.0
2015-Feb-21 23:33N 47°35' W 122°21'0 0.0
2015-Feb-21 23:32N 47°35' W 122°21'0 0.0
2015-Feb-21 22:33N 47°35' W 122°21'0 0.0
2015-Feb-21 22:32N 47°35' W 122°21'0 0.0
2015-Feb-21 21:33N 47°35' W 122°21'0 0.0
2015-Feb-21 21:32N 47°35' W 122°21'0 0.0
2015-Feb-21 20:33N 47°35' W 122°21'0 0.0
2015-Feb-21 20:32N 47°35' W 122°21'0 0.0
2015-Feb-21 19:33N 47°35' W 122°21'0 0.0
2015-Feb-21 19:31N 47°35' W 122°21'0 0.0
2015-Feb-21 18:33N 47°35' W 122°21'0 0.2
2015-Feb-21 18:31N 47°35' W 122°21'0 0.0
2015-Feb-21 17:33N 47°35' W 122°21'0 0.0
2015-Feb-21 17:31N 47°35' W 122°21'0 0.0
2015-Feb-21 16:33N 47°35' W 122°21'0 0.0
2015-Feb-21 16:31N 47°35' W 122°21'1 0.8
2015-Feb-21 15:33N 47°36' W 122°21'0 1.4
2015-Feb-21 15:31N 47°36' W 122°21'0 0.3
2015-Feb-21 14:33N 47°36' W 122°21'0 0.1
2015-Feb-21 14:31N 47°36' W 122°21'1 1.4
2015-Feb-21 13:33N 47°36' W 122°23'0 1.2
2015-Feb-21 13:31N 47°36' W 122°23'2 2.5
2015-Feb-21 12:33N 47°35' W 122°26'0 7.7
2015-Feb-21 12:30N 47°34' W 122°26'9 9.6
2015-Feb-21 11:33N 47°25' W 122°23'8 8.2
2015-Feb-21 10:33N 47°18' W 122°27'1 0.7
2015-Feb-21 09:33N 47°18' W 122°26'0 0.0
2015-Feb-21 08:33N 47°18' W 122°26'0 0.0
2015-Feb-21 07:33N 47°18' W 122°26'0 0.0
2015-Feb-21 06:33N 47°18' W 122°26'0 0.0
2015-Feb-21 05:33N 47°18' W 122°26'1 1.5
2015-Feb-21 04:33N 47°16' W 122°25'1 1.1
2015-Feb-21 03:33N 47°17' W 122°26'1 1.2
2015-Feb-21 02:32N 47°17' W 122°25'0 0.5
2015-Feb-21 01:33N 47°16' W 122°25'1 0.5
2015-Feb-21 00:33N 47°16' W 122°24'1 1.2
2015-Feb-20 23:33N 47°16' W 122°23'3 2.9
2015-Feb-20 22:33N 47°18' W 122°26'0 0.0
2015-Feb-20 21:33N 47°18' W 122°26'0 0.0
2015-Feb-20 20:33N 47°18' W 122°26'0 0.0
2015-Feb-20 19:32N 47°18' W 122°26'0 0.0
2015-Feb-20 18:33N 47°18' W 122°26'1 1.4
2015-Feb-20 17:33N 47°16' W 122°25'1 1.4
2015-Feb-20 16:33N 47°18' W 122°26'0 0.0
2015-Feb-20 15:32N 47°18' W 122°26'0 0.0
2015-Feb-20 14:33N 47°18' W 122°26'0 0.0
2015-Feb-20 13:33N 47°18' W 122°26'0 0.0
2015-Feb-20 12:30N 47°18' W 122°26'0 0.0
2015-Feb-20 11:33N 47°18' W 122°26'0 0.0
2015-Feb-20 10:33N 47°18' W 122°26'0 0.0
2015-Feb-20 09:33N 47°18' W 122°26'0 0.0
2015-Feb-20 08:32N 47°18' W 122°26'0 0.0
2015-Feb-20 07:33N 47°18' W 122°26'0 0.0
2015-Feb-20 06:33N 47°18' W 122°26'0 0.0
2015-Feb-20 05:33N 47°18' W 122°26'0 0.0
2015-Feb-20 04:33N 47°18' W 122°26'1 1.1
2015-Feb-20 03:33N 47°17' W 122°25'1 0.6
2015-Feb-20 02:33N 47°17' W 122°25'1 1.2
2015-Feb-20 01:33N 47°16' W 122°23'2 2.4
2015-Feb-20 00:33N 47°17' W 122°26'3 2.6
2015-Feb-19 23:33N 47°16' W 122°23'2 2.1
2015-Feb-19 22:33N 47°15' W 122°26'0 0.0
2015-Feb-19 21:33N 47°15' W 122°26'0 0.0
2015-Feb-19 20:33N 47°15' W 122°26'  
Track history (hours):
 
Tides and Currents Weather Stations Pressure Air Temp Water Temp Dewpoint Dewpoint Depression Visibility Wind Speed Wind Dir Waves Ship Positions

Guide

Owner: CROWLEY MARINE SERVICES INC, SEATTLE, WA. More information available from US FCC via Universal Licensing System and Coast Guard Vessel Documentation Center.

Last reported at 2015-Mar-01 20:19 UTC. Time now 2015-Mar-01 20:58 UTC.
Position N 47°16' W 122°24'.

Length 34 m; draft 5.1 m.

Type: Tug. MMSI: 366759530.

Date/timePositionNaut miles runAvg speedWind from/ knotsBaromVisibWave heightAir tempDewpointWater temp
2015-Mar-01 20:19N 47°16' W 122°24'0 0.3
2015-Mar-01 19:30N 47°16' W 122°24'1 1.5
2015-Mar-01 18:33N 47°17' W 122°25'2 1.7
2015-Mar-01 17:33N 47°15' W 122°26'0 0.0
2015-Mar-01 15:32N 47°15' W 122°26'1 0.8
2015-Mar-01 14:31N 47°16' W 122°26'2 2.3
2015-Mar-01 13:32N 47°16' W 122°23'0 0.2
2015-Mar-01 12:33N 47°16' W 122°23'1 0.3
2015-Mar-01 10:06N 47°16' W 122°24'0 0.0
2015-Mar-01 07:08N 47°16' W 122°24'1 0.9
2015-Mar-01 06:32N 47°16' W 122°23'1 0.8
2015-Mar-01 05:31N 47°15' W 122°23'0 0.5
2015-Mar-01 04:33N 47°16' W 122°23'0 0.0
2015-Mar-01 03:32N 47°16' W 122°23'2 1.9
2015-Mar-01 02:32N 47°17' W 122°25'0 0.3
2015-Mar-01 01:33N 47°17' W 122°25'1 0.5
2015-Mar-01 00:33N 47°16' W 122°25'1 1.1
2015-Feb-28 23:28N 47°16' W 122°23'2 1.9
2015-Feb-28 22:22N 47°16' W 122°26'2 1.9
2015-Feb-28 21:20N 47°18' W 122°27'9 9.4
2015-Feb-28 20:21N 47°27' W 122°25'712.0
2015-Feb-28 19:46N 47°34' W 122°27'211.2
2015-Feb-28 19:32N 47°36' W 122°24'1 8.9
2015-Feb-28 19:26N 47°36' W 122°22'1 1.1
2015-Feb-28 18:33N 47°35' W 122°22'0 0.8
2015-Feb-28 18:31N 47°35' W 122°22'1 0.7
2015-Feb-28 17:33N 47°35' W 122°21'0 0.0
2015-Feb-28 17:26N 47°35' W 122°21'0 0.0
2015-Feb-28 16:33N 47°35' W 122°21'0 0.0
2015-Feb-28 16:31N 47°35' W 122°21'0 0.0
2015-Feb-28 15:29N 47°35' W 122°21'0 0.0
2015-Feb-28 15:21N 47°35' W 122°21'3 3.5
2015-Feb-28 14:33N 47°35' W 122°25'9 8.5
2015-Feb-28 13:30N 47°26' W 122°23'7 7.3
2015-Feb-28 12:33N 47°20' W 122°26'4 4.1
2015-Feb-28 11:32N 47°16' W 122°23'0 0.5
2015-Feb-28 10:32N 47°15' W 122°23'1 0.5
2015-Feb-28 08:31N 47°16' W 122°24'0 0.0
2015-Feb-28 05:32N 47°16' W 122°24'0 0.0
2015-Feb-28 04:33N 47°16' W 122°24'1 0.9
2015-Feb-28 03:21N 47°15' W 122°23'0 0.1
2015-Feb-28 02:27N 47°16' W 122°23'0 0.1
2015-Feb-28 01:32N 47°15' W 122°23'3 2.3
2015-Feb-28 00:17N 47°18' W 122°26'0 0.0
2015-Feb-27 22:17N 47°18' W 122°26'0 0.1
2015-Feb-27 21:25N 47°18' W 122°26'1 1.6
2015-Feb-27 20:31N 47°16' W 122°25'1 0.9
2015-Feb-27 19:16N 47°15' W 122°26'0 0.0
2015-Feb-27 18:26N 47°15' W 122°26'0 0.0
2015-Feb-27 17:20N 47°15' W 122°26'0 0.0
2015-Feb-27 15:15N 47°15' W 122°26'1 0.3
2015-Feb-27 13:21N 47°16' W 122°26'2 2.0
2015-Feb-27 12:28N 47°16' W 122°24'0 0.3
2015-Feb-27 11:18N 47°16' W 122°24'0 0.0
2015-Feb-27 10:07N 47°16' W 122°24'0 0.0
2015-Feb-27 09:30N 47°16' W 122°24'0 0.0
2015-Feb-27 08:08N 47°16' W 122°24'0 0.0
2015-Feb-27 07:33N 47°16' W 122°24'0 0.0
2015-Feb-27 04:15N 47°16' W 122°24'1 1.8
2015-Feb-27 03:33N 47°17' W 122°25'1 1.3
2015-Feb-27 02:32N 47°16' W 122°24'1 0.9
2015-Feb-27 01:30N 47°16' W 122°23'1 0.9
2015-Feb-27 00:33N 47°16' W 122°24'1 0.7
2015-Feb-26 23:33N 47°16' W 122°25'3 6.3
2015-Feb-26 23:08N 47°18' W 122°27'5 8.0
2015-Feb-26 22:33N 47°22' W 122°24'4 7.7
2015-Feb-26 21:59N 47°26' W 122°24'4 8.8
2015-Feb-26 21:33N 47°30' W 122°26'1 8.8
2015-Feb-26 21:24N 47°31' W 122°27'6 6.1
2015-Feb-26 20:30N 47°35' W 122°21'0 0.0
2015-Feb-26 19:59N 47°35' W 122°21'0 0.0
2015-Feb-26 19:33N 47°35' W 122°21'0 0.0
2015-Feb-26 19:13N 47°35' W 122°21'0 0.0
2015-Feb-26 18:33N 47°35' W 122°21'0 0.0
2015-Feb-26 18:29N 47°35' W 122°21'0 0.0
2015-Feb-26 17:33N 47°35' W 122°21'0 0.0
2015-Feb-26 17:29N 47°35' W 122°21'0 0.0
2015-Feb-26 16:33N 47°35' W 122°21'0 0.0
2015-Feb-26 16:33N 47°35' W 122°21'0 0.0
2015-Feb-26 15:32N 47°35' W 122°21'0 0.0
2015-Feb-26 15:32N 47°35' W 122°21'0 0.0
2015-Feb-26 14:33N 47°35' W 122°21'0 0.0
2015-Feb-26 14:33N 47°35' W 122°21'0 0.5
2015-Feb-26 13:33N 47°35' W 122°21'0 2.5
2015-Feb-26 13:28N 47°35' W 122°21'1 0.6
2015-Feb-26 12:33N 47°36' W 122°21'0 0.2
2015-Feb-26 12:06N 47°36' W 122°21'1 1.5
2015-Feb-26 11:33N 47°35' W 122°21'0 0.0
2015-Feb-26 11:26N 47°35' W 122°21'0 0.0
2015-Feb-26 10:28N 47°35' W 122°21'0 0.0
2015-Feb-26 10:01N 47°35' W 122°21'0 0.0
2015-Feb-26 09:33N 47°35' W 122°21'0 0.0
2015-Feb-26 09:30N 47°35' W 122°21'0 0.2
2015-Feb-26 08:33N 47°35' W 122°21'0 0.2
2015-Feb-26 07:33N 47°35' W 122°21'0 0.0
2015-Feb-26 06:58N 47°35' W 122°21'0 0.0
2015-Feb-26 06:31N 47°35' W 122°21'0 0.0
2015-Feb-26 05:33N 47°35' W 122°21'0 0.0
2015-Feb-26 05:28N 47°35' W 122°21'0 0.0
2015-Feb-26 04:33N 47°35' W 122°21'0 0.0
2015-Feb-26 04:33N 47°35' W 122°21'0 0.0
2015-Feb-26 03:33N 47°35' W 122°21'0 0.0
2015-Feb-26 03:23N 47°35' W 122°21'5 6.6
2015-Feb-26 02:33N 47°34' W 122°29'1 9.6
2015-Feb-26 02:24N 47°34' W 122°31'1 1.1
2015-Feb-26 01:33N 47°34' W 122°32'5 4.7
2015-Feb-26 00:33N 47°29' W 122°30'112.2
2015-Feb-26 00:28N 47°28' W 122°31'1010.6
2015-Feb-25 23:33N 47°19' W 122°29'5 4.6
2015-Feb-25 22:33N 47°16' W 122°24'1 0.9
2015-Feb-25 21:32N 47°16' W 122°25'1 0.8
2015-Feb-25 20:32N 47°17' W 122°25'1 0.8
2015-Feb-25 19:33N 47°18' W 122°26'0 0.4
2015-Feb-25 18:33N 47°18' W 122°26'2 2.1
2015-Feb-25 17:33N 47°16' W 122°24'1 1.0
2015-Feb-25 16:33N 47°15' W 122°23'2 2.4
2015-Feb-25 15:33N 47°16' W 122°26'1 1.0
2015-Feb-25 14:33N 47°15' W 122°26'0 0.0
2015-Feb-25 13:33N 47°15' W 122°26'0 0.0
2015-Feb-25 12:32N 47°15' W 122°26'0 0.0
2015-Feb-25 11:33N 47°15' W 122°26'0 0.0
2015-Feb-25 10:33N 47°15' W 122°26'0 0.0
2015-Feb-25 09:32N 47°15' W 122°26'0 0.0
2015-Feb-25 08:33N 47°15' W 122°26'0 0.0
2015-Feb-25 07:33N 47°15' W 122°26'0 0.0
2015-Feb-25 06:33N 47°15' W 122°26'0 0.0
2015-Feb-25 05:33N 47°15' W 122°26'0 0.0
2015-Feb-25 04:06N 47°15' W 122°26'0 0.0
2015-Feb-25 03:29N 47°15' W 122°26'1 1.6
2015-Feb-25 02:33N 47°17' W 122°26'2 2.3
2015-Feb-25 01:33N 47°16' W 122°23'2 2.0
2015-Feb-25 00:33N 47°17' W 122°25'1 0.6
2015-Feb-24 23:33N 47°17' W 122°26'2 1.7
2015-Feb-24 22:29N 47°15' W 122°26'0 0.0
2015-Feb-24 20:33N 47°15' W 122°26'0 0.0
2015-Feb-24 19:33N 47°15' W 122°26'0 0.0
2015-Feb-24 18:33N 47°15' W 122°26'2 1.6
2015-Feb-24 17:33N 47°17' W 122°25'1 0.5
2015-Feb-24 16:33N 47°16' W 122°24'0 0.2
2015-Feb-24 15:33N 47°16' W 122°24'1 1.5
2015-Feb-24 14:33N 47°17' W 122°26'3 3.0
2015-Feb-24 13:33N 47°15' W 122°23'3 2.9
2015-Feb-24 12:31N 47°17' W 122°26'2 1.5
2015-Feb-24 11:30N 47°16' W 122°26'2 1.7
2015-Feb-24 10:28N 47°16' W 122°24'0 0.0
2015-Feb-24 09:33N 47°16' W 122°24'0 0.0
2015-Feb-24 08:30N 47°16' W 122°24'0 0.0
2015-Feb-24 07:33N 47°16' W 122°24'0 0.2
2015-Feb-24 06:31N 47°16' W 122°24'1 1.1
2015-Feb-24 05:20N 47°15' W 122°23'1 0.6
2015-Feb-24 04:27N 47°16' W 122°23'1 0.3
2015-Feb-24 02:32N 47°15' W 122°23'0 0.3
2015-Feb-24 01:28N 47°16' W 122°23'2 2.2
2015-Feb-24 00:33N 47°15' W 122°26'0 0.0
2015-Feb-23 23:33N 47°15' W 122°26'0 0.0
2015-Feb-23 22:33N 47°15' W 122°26'0 0.0
2015-Feb-23 21:28N 47°15' W 122°26'0 0.0
2015-Feb-23 20:33N 47°15' W 122°26'0 0.0
2015-Feb-23 19:33N 47°15' W 122°26'0 0.0
2015-Feb-23 18:25N 47°15' W 122°26'0 0.0
2015-Feb-23 17:39N 47°15' W 122°26'0 0.1
2015-Feb-23 17:33N 47°15' W 122°26'0 0.0
2015-Feb-23 16:31N 47°15' W 122°26'0 0.0
2015-Feb-23 15:32N 47°15' W 122°26'0 0.0
2015-Feb-23 14:33N 47°15' W 122°26'0 0.0
2015-Feb-23 13:22N 47°15' W 122°26'0 0.0
2015-Feb-23 12:33N 47°15' W 122°26'0 0.0
2015-Feb-23 11:33N 47°15' W 122°26'0 0.0
2015-Feb-23 10:33N 47°15' W 122°26'0 0.0
2015-Feb-23 09:33N 47°15' W 122°26'2 2.1
2015-Feb-23 08:33N 47°15' W 122°23'2 2.4
2015-Feb-23 07:33N 47°17' W 122°25'2 1.9
2015-Feb-23 06:33N 47°16' W 122°23'0 0.4
2015-Feb-23 06:22N 47°16' W 122°23'1 0.7
2015-Feb-23 05:33N 47°15' W 122°23'0 0.8
2015-Feb-23 05:17N 47°15' W 122°23'3 3.5
2015-Feb-23 04:33N 47°17' W 122°26'0 1.5
2015-Feb-23 04:20N 47°17' W 122°26'2 2.1
2015-Feb-23 03:33N 47°15' W 122°26'0 0.0
2015-Feb-23 02:33N 47°15' W 122°26'0 0.0
2015-Feb-23 01:33N 47°15' W 122°26'0 0.0
2015-Feb-23 00:33N 47°15' W 122°26'0 0.0
2015-Feb-22 23:33N 47°15' W 122°26'0 0.0
2015-Feb-22 22:33N 47°15' W 122°26'0 0.0
2015-Feb-22 21:33N 47°15' W 122°26'0 0.0
2015-Feb-22 20:33N 47°15' W 122°26'0 0.0
2015-Feb-22 19:33N 47°15' W 122°26'0 0.0
2015-Feb-22 18:36N 47°15' W 122°26'0 0.0
2015-Feb-22 18:33N 47°15' W 122°26'0 0.0
2015-Feb-22 17:33N 47°15' W 122°26'2 1.8
2015-Feb-22 16:35N 47°17' W 122°27'0 7.7
2015-Feb-22 16:33N 47°17' W 122°27'0 7.3
2015-Feb-22 16:30N 47°18' W 122°27'8 8.0
2015-Feb-22 15:33N 47°25' W 122°23'3 9.5
2015-Feb-22 15:16N 47°27' W 122°25'7 9.4
2015-Feb-22 14:33N 47°33' W 122°27'0 8.5
2015-Feb-22 14:30N 47°34' W 122°27'4 4.4
2015-Feb-22 13:33N 47°35' W 122°21'0 0.0
2015-Feb-22 13:31N 47°35' W 122°21'0 0.0
2015-Feb-22 12:33N 47°35' W 122°21'0 0.0
2015-Feb-22 12:20N 47°35' W 122°21'1 0.8
2015-Feb-22 11:33N 47°35' W 122°21'0 0.1
2015-Feb-22 11:30N 47°35' W 122°21'2 1.9
2015-Feb-22 10:33N 47°37' W 122°21'0 0.3
2015-Feb-22 10:24N 47°37' W 122°21'2 2.1
2015-Feb-22 09:33N 47°35' W 122°21'0 0.0
2015-Feb-22 09:29N 47°35' W 122°21'0 0.1
2015-Feb-22 08:33N 47°35' W 122°21'0 6.5
2015-Feb-22 08:29N 47°35' W 122°21'1 0.8
2015-Feb-22 07:49N 47°35' W 122°21'0 0.0
2015-Feb-22 07:33N 47°35' W 122°21'0 0.0
2015-Feb-22 06:33N 47°35' W 122°21'0 0.1
2015-Feb-22 06:29N 47°35' W 122°21'0 0.0
2015-Feb-22 05:33N 47°35' W 122°21'0 0.0
2015-Feb-22 05:29N 47°35' W 122°21'0 0.0
2015-Feb-22 04:33N 47°35' W 122°21'0 0.0
2015-Feb-22 04:29N 47°35' W 122°21'0 0.0
2015-Feb-22 03:33N 47°35' W 122°21'0 0.0
2015-Feb-22 03:29N 47°35' W 122°21'0 0.0
2015-Feb-22 02:33N 47°35' W 122°21'0 0.1
2015-Feb-22 02:29N 47°35' W 122°21'0 0.0
2015-Feb-22 01:33N 47°35' W 122°21'0 0.0
2015-Feb-22 01:33N 47°35' W 122°21'0 0.0
2015-Feb-22 00:31N 47°35' W 122°21'0 0.0
2015-Feb-22 00:27N 47°35' W 122°21'0 0.0
2015-Feb-21 23:33N 47°35' W 122°21'0 0.0
2015-Feb-21 23:32N 47°35' W 122°21'0 0.0
2015-Feb-21 22:33N 47°35' W 122°21'0 0.0
2015-Feb-21 22:32N 47°35' W 122°21'0 0.0
2015-Feb-21 21:33N 47°35' W 122°21'0 0.0
2015-Feb-21 21:32N 47°35' W 122°21'0 0.0
2015-Feb-21 20:33N 47°35' W 122°21'0 0.0
2015-Feb-21 20:32N 47°35' W 122°21'0 0.0
2015-Feb-21 19:33N 47°35' W 122°21'0 0.0
2015-Feb-21 19:31N 47°35' W 122°21'0 0.0
2015-Feb-21 18:33N 47°35' W 122°21'0 0.2
2015-Feb-21 18:31N 47°35' W 122°21'0 0.0
2015-Feb-21 17:33N 47°35' W 122°21'0 0.0
2015-Feb-21 17:31N 47°35' W 122°21'0 0.0
2015-Feb-21 16:33N 47°35' W 122°21'0 0.0
2015-Feb-21 16:31N 47°35' W 122°21'1 0.8
2015-Feb-21 15:33N 47°36' W 122°21'0 1.4
2015-Feb-21 15:31N 47°36' W 122°21'0 0.3
2015-Feb-21 14:33N 47°36' W 122°21'0 0.1
2015-Feb-21 14:31N 47°36' W 122°21'1 1.4
2015-Feb-21 13:33N 47°36' W 122°23'0 1.2
2015-Feb-21 13:31N 47°36' W 122°23'2 2.5
2015-Feb-21 12:33N 47°35' W 122°26'0 7.7
2015-Feb-21 12:30N 47°34' W 122°26'9 9.6
2015-Feb-21 11:33N 47°25' W 122°23'8 8.2
2015-Feb-21 10:33N 47°18' W 122°27'1 0.7
2015-Feb-21 09:33N 47°18' W 122°26'0 0.0
2015-Feb-21 08:33N 47°18' W 122°26'0 0.0
2015-Feb-21 07:33N 47°18' W 122°26'0 0.0
2015-Feb-21 06:33N 47°18' W 122°26'0 0.0
2015-Feb-21 05:33N 47°18' W 122°26'1 1.5
2015-Feb-21 04:33N 47°16' W 122°25'1 1.1
2015-Feb-21 03:33N 47°17' W 122°26'1 1.2
2015-Feb-21 02:32N 47°17' W 122°25'0 0.5
2015-Feb-21 01:33N 47°16' W 122°25'1 0.5
2015-Feb-21 00:33N 47°16' W 122°24'1 1.2
2015-Feb-20 23:33N 47°16' W 122°23'3 2.9
2015-Feb-20 22:33N 47°18' W 122°26'0 0.0
2015-Feb-20 21:33N 47°18' W 122°26'0 0.0
2015-Feb-20 20:33N 47°18' W 122°26'0 0.0
2015-Feb-20 19:32N 47°18' W 122°26'0 0.0
2015-Feb-20 18:33N 47°18' W 122°26'1 1.4
2015-Feb-20 17:33N 47°16' W 122°25'1 1.4
2015-Feb-20 16:33N 47°18' W 122°26'0 0.0
2015-Feb-20 15:32N 47°18' W 122°26'0 0.0
2015-Feb-20 14:33N 47°18' W 122°26'0 0.0
2015-Feb-20 13:33N 47°18' W 122°26'0 0.0
2015-Feb-20 12:30N 47°18' W 122°26'0 0.0
2015-Feb-20 11:33N 47°18' W 122°26'0 0.0
2015-Feb-20 10:33N 47°18' W 122°26'0 0.0
2015-Feb-20 09:33N 47°18' W 122°26'0 0.0
2015-Feb-20 08:32N 47°18' W 122°26'0 0.0
2015-Feb-20 07:33N 47°18' W 122°26'0 0.0
2015-Feb-20 06:33N 47°18' W 122°26'0 0.0
2015-Feb-20 05:33N 47°18' W 122°26'0 0.0
2015-Feb-20 04:33N 47°18' W 122°26'1 1.1
2015-Feb-20 03:33N 47°17' W 122°25'1 0.6
2015-Feb-20 02:33N 47°17' W 122°25'1 1.2
2015-Feb-20 01:33N 47°16' W 122°23'2 2.4
2015-Feb-20 00:33N 47°17' W 122°26'3 2.6
2015-Feb-19 23:33N 47°16' W 122°23'2 2.1
2015-Feb-19 22:33N 47°15' W 122°26'0 0.0
2015-Feb-19 21:33N 47°15' W 122°26'0 0.0
2015-Feb-19 20:33N 47°15' W 122°26'  

Dump ship's entire track history